Time;durP1;ratioP1;P1;durP2;ratioP2;P2;SDS_P1;SDS_P2;PMS_P1;PMS_P2;Temp;Humidity;BMP_temperature;BMP_pressure;BME280_temperature;BME280_humidity;BME280_pressure;Samples;Min_cycle;Max_cycle;Signal;HPM_P1;HPM_P2
2022/01/16 00:00:46;;;;;;;68.00;23.53;;;1.00;75.60;;;;;;5107076;28;20484;-89
2022/01/16 00:05:57;;;;;;;71.63;22.87;;;0.90;75.60;;;;;;5107806;28;20047;-88
2022/01/16 00:08:22;;;;;;;;;;;1.00;75.70;;;;;;5104093;28;20036;-89
2022/01/16 00:10:48;;;;;;;84.40;29.10;;;1.00;75.90;;;;;;5111055;28;20245;-89
2022/01/16 00:13:14;;;;;;;82.70;30.25;;;1.00;75.70;;;;;;5108320;28;20020;-90
2022/01/16 00:15:41;;;;;;;;;;;1.00;75.70;;;;;;5111353;28;20053;-89
2022/01/16 00:18:16;;;;;;;73.75;25.90;;;1.00;75.80;;;;;;5106780;28;20002;-90
2022/01/16 00:20:41;;;;;;;87.93;30.40;;;1.00;75.50;;;;;;5103663;28;20042;-89
2022/01/16 00:23:10;;;;;;;;;;;1.00;75.60;;;;;;5117975;28;20480;-88
2022/01/16 00:25:35;;;;;;;71.43;25.70;;;0.90;75.70;;;;;;5113650;28;19937;-90
2022/01/16 00:28:01;;;;;;;;;;;0.90;75.50;;;;;;5112398;28;20027;-89
2022/01/16 00:30:26;;;;;;;61.30;18.53;;;0.90;75.70;;;;;;5105905;28;19961;-89
2022/01/16 00:32:54;;;;;;;;;;;0.90;75.50;;;;;;5109903;28;20068;-88
2022/01/16 00:35:19;;;;;;;;;;;0.80;75.60;;;;;;5108451;28;19908;-89
2022/01/16 00:37:47;;;;;;;55.53;20.53;;;0.80;75.50;;;;;;5111088;28;19956;-89
2022/01/16 00:40:12;;;;;;;51.63;19.60;;;0.80;75.40;;;;;;5107942;28;20023;-89
2022/01/16 00:42:38;;;;;;;;;;;0.80;75.60;;;;;;5104578;28;20039;-89
2022/01/16 00:45:04;;;;;;;58.47;20.63;;;0.80;75.80;;;;;;5106897;28;19950;-89
2022/01/16 00:47:30;;;;;;;57.67;20.47;;;0.80;75.60;;;;;;5104876;28;20098;-90
2022/01/16 00:49:56;;;;;;;;;;;0.80;75.60;;;;;;5107760;28;20463;-90
2022/01/16 00:52:21;;;;;;;62.77;19.70;;;0.80;75.60;;;;;;5104670;28;19958;-90
2022/01/16 00:54:47;;;;;;;51.35;18.40;;;0.80;75.40;;;;;;5112059;28;20054;-90
2022/01/16 00:57:12;;;;;;;;;;;0.80;75.50;;;;;;5102117;28;20119;-89
2022/01/16 00:59:40;;;;;;;52.17;17.73;;;0.80;75.60;;;;;;5112164;28;19908;-89
2022/01/16 01:02:05;;;;;;;51.13;18.13;;;0.70;75.40;;;;;;5106824;28;20110;-89
2022/01/16 01:04:31;;;;;;;;;;;0.60;75.50;;;;;;5109774;28;20099;-89
2022/01/16 01:06:56;;;;;;;53.83;17.60;;;0.60;75.70;;;;;;5100818;28;20429;-89
2022/01/16 01:09:22;;;;;;;56.17;20.00;;;0.60;75.50;;;;;;5102802;28;20043;-90
2022/01/16 01:11:50;;;;;;;;;;;0.40;75.70;;;;;;5106934;28;20023;-89
2022/01/16 01:14:38;;;;;;;;;;;0.30;75.90;;;;;;5108620;28;19912;-89
2022/01/16 01:17:04;;;;;;;55.60;20.73;;;0.30;75.70;;;;;;5109501;28;19990;-89
2022/01/16 01:19:34;;;;;;;61.10;23.40;;;0.20;75.60;;;;;;5104115;28;20035;-89
2022/01/16 01:22:04;;;;;;;56.27;22.10;;;0.00;75.80;;;;;;5114281;28;20111;-88
2022/01/16 01:24:31;;;;;;;58.30;20.70;;;0.00;76.10;;;;;;5106898;28;20423;-90
2022/01/16 01:27:13;;;;;;;61.80;21.73;;;-3276.70;76.20;;;;;;5112522;28;20507;-89
2022/01/16 01:29:42;;;;;;;65.97;21.87;;;-3276.70;76.30;;;;;;5108770;28;20074;-88
2022/01/16 01:32:08;;;;;;;67.87;24.63;;;-3276.60;76.30;;;;;;5103064;28;20027;-88
2022/01/16 01:34:37;;;;;;;;;;;-3276.50;76.40;;;;;;5108972;28;20004;-89
2022/01/16 01:37:03;;;;;;;68.07;23.03;;;-3276.40;76.50;;;;;;5113533;28;19908;-90
2022/01/16 01:39:29;;;;;;;;;;;-3276.40;76.20;;;;;;5114578;28;20065;-90
2022/01/16 01:42:04;;;;;;;68.40;23.87;;;-3276.30;76.30;;;;;;5106605;28;19907;-90
2022/01/16 01:52:42;;;;;;;76.43;25.33;;;-3276.00;76.40;;;;;;5115544;28;20026;-89
2022/01/16 01:55:08;;;;;;;;;;;-3275.90;76.40;;;;;;5107009;28;20013;-90
2022/01/16 01:57:34;;;;;;;81.27;25.97;;;-3275.90;76.60;;;;;;5108035;28;19904;-90
2022/01/16 01:59:59;;;;;;;;;;;-3275.90;76.30;;;;;;5104998;28;20028;-89
2022/01/16 02:02:29;;;;;;;102.93;28.93;;;-3275.90;76.50;;;;;;5108804;28;19907;-89
2022/01/16 02:04:55;;;;;;;107.50;31.77;;;-3276.00;76.20;;;;;;5103112;28;20038;-89
2022/01/16 02:07:21;;;;;;;;;;;-3276.00;76.30;;;;;;5112597;28;20031;-89
2022/01/16 02:09:47;;;;;;;98.83;29.63;;;-3276.10;76.40;;;;;;5111625;28;19977;-90
2022/01/16 02:12:13;;;;;;;;;;;-3276.10;76.00;;;;;;5107409;28;20484;-89
2022/01/16 02:15:00;;;;;;;136.13;31.50;;;-3276.20;76.20;;;;;;5116292;28;19908;-89
2022/01/16 02:29:05;;;;;;;221.00;38.70;;;-3276.50;75.90;;;;;;5127788;28;20076;-90
2022/01/16 02:31:24;;;;;;;;;;;-3276.60;75.90;;;;;;5134335;28;20027;-90
2022/01/16 02:34:37;;;;;;;129.67;33.17;;;-3276.60;75.90;;;;;;5126899;28;19899;-89
2022/01/16 02:36:48;;;;;;;175.53;36.17;;;-3276.60;75.70;;;;;;5126458;28;20043;-89
2022/01/16 02:39:14;;;;;;;181.30;38.73;;;-3276.60;75.80;;;;;;5134898;28;20004;-89
2022/01/16 02:41:41;;;;;;;177.87;37.73;;;-3276.50;75.90;;;;;;5129098;28;20010;-89
2022/01/16 02:44:19;;;;;;;250.47;44.17;;;-3276.50;76.10;;;;;;5127087;28;20033;-88
2022/01/16 02:46:45;;;;;;;200.07;39.17;;;-3276.50;76.20;;;;;;5113798;28;20492;-89
2022/01/16 02:49:23;;;;;;;;;;;-3276.60;76.20;;;;;;5107987;28;20028;-88
2022/01/16 02:51:51;;;;;;;179.32;36.40;;;-3276.60;76.30;;;;;;5116930;28;19907;-89
2022/01/16 02:54:18;;;;;;;265.80;43.00;;;-3276.60;75.90;;;;;;5114819;28;20034;-88
2022/01/16 02:56:45;;;;;;;349.33;43.80;;;-3276.50;76.00;;;;;;5109630;28;20038;-88
2022/01/16 02:59:12;;;;;;;197.47;40.33;;;-3276.50;76.20;;;;;;5115694;28;20074;-90
2022/01/16 03:01:38;;;;;;;332.47;46.63;;;-3276.50;76.30;;;;;;5111242;28;20036;-89
2022/01/16 03:04:04;;;;;;;191.17;38.60;;;-3276.50;76.40;;;;;;5114442;28;20027;-90
2022/01/16 03:06:30;;;;;;;;;;;-3276.50;76.40;;;;;;5113686;28;20072;-90
2022/01/16 03:08:56;;;;;;;249.77;36.63;;;-3276.50;76.40;;;;;;5106280;28;19911;-90
2022/01/16 03:11:38;;;;;;;;;;;-3276.50;76.10;;;;;;5108534;28;20022;-88
2022/01/16 03:14:08;;;;;;;247.60;32.87;;;-3276.50;76.30;;;;;;5107415;28;19953;-89
2022/01/16 03:16:34;;;;;;;302.00;37.30;;;-3276.50;76.00;;;;;;5108759;28;20016;-89
2022/01/16 03:21:58;;;;;;;320.70;38.93;;;-3276.50;76.30;;;;;;5114665;28;19915;-90
2022/01/16 03:24:37;;;;;;;261.63;37.03;;;-3276.50;75.90;;;;;;5105347;28;20111;-89
2022/01/16 03:27:10;;;;;;;289.87;35.77;;;-3276.50;76.10;;;;;;5102615;28;20054;-89
2022/01/16 03:29:37;;;;;;;235.83;34.20;;;-3276.50;76.20;;;;;;5109684;28;20028;-90
2022/01/16 03:32:05;;;;;;;251.30;34.57;;;-3276.50;76.30;;;;;;5102535;28;20021;-89
2022/01/16 03:34:30;;;;;;;244.07;34.30;;;-3276.50;76.40;;;;;;5105865;28;20126;-89
2022/01/16 03:36:56;;;;;;;;;;;-3276.50;76.40;;;;;;5103059;28;20032;-89
2022/01/16 03:39:22;;;;;;;229.43;31.17;;;-3276.50;76.50;;;;;;5105184;28;19914;-89
2022/01/16 03:41:48;;;;;;;;;;;-3276.50;76.20;;;;;;5108949;28;20469;-89
2022/01/16 03:44:13;;;;;;;239.10;34.20;;;-3276.50;76.30;;;;;;5107715;28;19914;-88
2022/01/16 03:46:40;;;;;;;;;;;-3276.50;76.10;;;;;;5113265;28;20126;-88
2022/01/16 03:49:17;;;;;;;246.43;37.22;;;-3276.50;76.20;;;;;;5113652;28;19958;-88
2022/01/16 03:51:45;;;;;;;185.27;34.47;;;-3276.40;75.90;;;;;;5113035;28;20027;-88
2022/01/16 03:54:13;;;;;;;230.70;36.07;;;-3276.40;76.10;;;;;;5113614;28;20019;-89
2022/01/16 03:56:39;;;;;;;288.27;39.20;;;-3276.40;76.30;;;;;;5111754;28;20091;-88
2022/01/16 03:59:05;;;;;;;;;;;-3276.40;76.40;;;;;;5108963;28;20031;-89
2022/01/16 04:01:31;;;;;;;203.27;34.63;;;-3276.50;76.40;;;;;;5114095;28;19969;-88
2022/01/16 04:03:57;;;;;;;254.03;37.03;;;-3276.50;76.10;;;;;;5101998;28;20486;-88
2022/01/16 04:06:23;;;;;;;;;;;-3276.50;76.20;;;;;;5104375;28;20039;-88
2022/01/16 04:08:50;;;;;;;173.67;33.03;;;-3276.40;76.30;;;;;;5112686;28;19907;-88
2022/01/16 04:11:16;;;;;;;271.37;34.53;;;-3276.40;76.00;;;;;;5106170;28;20031;-88
2022/01/16 04:13:49;;;;;;;;;;;-3276.30;76.10;;;;;;5105430;28;20107;-89
2022/01/16 04:16:16;;;;;;;146.50;29.03;;;-3276.30;76.30;;;;;;5111712;28;19911;-88
2022/01/16 04:18:42;;;;;;;189.43;30.77;;;-3276.40;76.10;;;;;;5107795;28;20050;-86
2022/01/16 04:21:07;;;;;;;;;;;-3276.30;76.20;;;;;;5106573;28;20035;-89
2022/01/16 04:23:33;;;;;;;167.03;27.13;;;-3276.30;76.40;;;;;;5110334;28;19941;-88
2022/01/16 04:25:58;;;;;;;;;;;-3276.30;76.10;;;;;;5113480;28;20032;-90
2022/01/16 04:28:25;;;;;;;144.73;24.70;;;-3276.30;76.30;;;;;;5108860;28;19915;-89
2022/01/16 04:30:54;;;;;;;136.07;24.57;;;-3276.30;76.10;;;;;;5111626;28;20020;-89
2022/01/16 04:33:20;;;;;;;272.83;32.57;;;-3276.20;76.20;;;;;;5112406;28;20015;-89
2022/01/16 04:35:46;;;;;;;293.23;32.73;;;-3276.20;76.30;;;;;;5105267;28;20110;-89
2022/01/16 04:38:12;;;;;;;;;;;-3276.20;76.50;;;;;;5113939;28;20116;-88
2022/01/16 04:40:44;;;;;;;173.37;27.10;;;-3276.20;76.60;;;;;;5108276;28;20421;-88
2022/01/16 04:45:58;;;;;;;178.60;30.10;;;-3276.20;76.40;;;;;;5109688;28;20026;-89
2022/01/16 04:48:24;;;;;;;;;;;-3276.20;76.40;;;;;;5110656;28;21286;-89
2022/01/16 04:50:50;;;;;;;151.70;28.80;;;-3276.20;76.50;;;;;;5110479;28;20361;-89
2022/01/16 04:53:15;;;;;;;;;;;-3276.20;76.30;;;;;;5111070;28;20024;-88
2022/01/16 04:55:42;;;;;;;176.57;30.97;;;-3276.20;76.40;;;;;;5109723;28;20443;-89
2022/01/16 04:58:08;;;;;;;176.83;30.33;;;-3276.20;76.20;;;;;;5116882;28;20045;-89
2022/01/16 05:00:33;;;;;;;;;;;-3276.20;76.30;;;;;;5106722;28;20396;-89
2022/01/16 05:02:58;;;;;;;279.13;35.63;;;-3276.20;76.40;;;;;;5108501;28;19915;-87
2022/01/16 05:05:24;;;;;;;247.45;35.33;;;-3276.20;76.20;;;;;;5107414;28;20099;-90
2022/01/16 05:07:50;;;;;;;;;;;-3276.20;76.40;;;;;;5112097;28;20023;-89
2022/01/16 05:10:15;;;;;;;175.33;28.30;;;-3276.20;76.50;;;;;;5113076;28;19919;-90
2022/01/16 05:12:44;;;;;;;;;;;-3276.20;76.20;;;;;;5107453;28;20022;-90
2022/01/16 05:17:54;;;;;;;150.87;28.10;;;-3276.30;76.10;;;;;;5104162;28;20098;-91
2022/01/16 05:20:20;;;;;;;;;;;-3276.30;76.30;;;;;;5111866;28;20016;-89
2022/01/16 05:22:45;;;;;;;127.00;25.07;;;-3276.20;76.40;;;;;;5114213;28;19918;-90
2022/01/16 05:25:14;;;;;;;;;;;-3276.30;76.20;;;;;;5109838;28;20049;-90
2022/01/16 05:27:40;;;;;;;207.47;32.67;;;-3276.20;76.30;;;;;;5111554;28;20352;-90
2022/01/16 05:30:05;;;;;;;;;;;-3276.20;76.10;;;;;;5102241;28;20031;-90
2022/01/16 05:32:31;;;;;;;193.70;29.47;;;-3276.20;76.30;;;;;;5101808;28;19922;-89
2022/01/16 05:34:57;;;;;;;;;;;-3276.20;76.20;;;;;;5104381;28;20020;-89
2022/01/16 05:37:23;;;;;;;160.77;28.33;;;-3276.10;76.50;;;;;;5106438;28;19915;-89
2022/01/16 05:39:49;;;;;;;;;;;-3276.20;76.30;;;;;;5108318;28;20016;-89
2022/01/16 05:42:15;;;;;;;133.53;29.33;;;-3276.20;76.50;;;;;;5109776;28;19908;-88
2022/01/16 05:44:40;;;;;;;;;;;-3276.10;76.30;;;;;;5109775;28;20076;-89
2022/01/16 05:47:07;;;;;;;122.43;29.10;;;-3276.10;76.50;;;;;;5106488;28;19974;-89
2022/01/16 05:49:32;;;;;;;219.53;37.90;;;-3276.10;76.30;;;;;;5113636;28;20028;-90
2022/01/16 05:51:58;;;;;;;;;;;-3276.10;76.60;;;;;;5114887;28;20034;-89
2022/01/16 05:54:24;;;;;;;173.03;32.67;;;-3276.00;76.70;;;;;;5114617;28;19915;-90
2022/01/16 05:56:50;;;;;;;145.03;34.43;;;-3276.10;76.40;;;;;;5120711;28;20060;-90
2022/01/16 05:59:15;;;;;;;;;;;-3276.00;76.50;;;;;;5120433;28;20032;-89
2022/01/16 06:01:41;;;;;;;120.27;27.57;;;-3276.00;76.70;;;;;;5132016;28;19896;-89
2022/01/16 06:04:06;;;;;;;;;;;-3276.00;76.50;;;;;;5133306;28;20007;-89
2022/01/16 06:06:32;;;;;;;126.00;30.13;;;-3276.00;76.60;;;;;;5130141;28;19903;-90
2022/01/16 06:08:57;;;;;;;;;;;-3275.90;76.50;;;;;;5124561;28;20012;-89
2022/01/16 06:11:23;;;;;;;151.63;31.47;;;-3275.90;76.70;;;;;;5137047;28;19935;-89
2022/01/16 06:13:48;;;;;;;;;;;-3275.90;76.60;;;;;;5131267;28;20084;-90
2022/01/16 06:16:14;;;;;;;126.20;29.77;;;-3275.90;76.70;;;;;;5131761;28;19938;-89
2022/01/16 06:18:39;;;;;;;;;;;-3275.90;76.50;;;;;;5134935;28;20061;-88
2022/01/16 06:21:05;;;;;;;124.33;27.07;;;-3275.80;76.70;;;;;;5109838;28;19911;-87
2022/01/16 06:23:31;;;;;;;;;;;-3275.90;76.50;;;;;;5111255;28;20031;-88
2022/01/16 06:25:56;;;;;;;149.13;27.57;;;-3275.80;76.60;;;;;;5115412;28;19912;-89
2022/01/16 06:28:22;;;;;;;;;;;-3275.90;76.40;;;;;;5115705;28;20035;-89
2022/01/16 06:30:48;;;;;;;84.80;24.03;;;-3275.90;76.60;;;;;;5119290;28;19915;-89
2022/01/16 06:33:14;;;;;;;;;;;-3275.80;76.40;;;;;;5108033;28;20024;-89
2022/01/16 06:35:39;;;;;;;106.60;25.37;;;-3275.80;76.60;;;;;;5106373;28;19908;-89
2022/01/16 06:38:05;;;;;;;;;;;-3275.80;76.40;;;;;;5114731;28;20020;-89
2022/01/16 06:40:31;;;;;;;127.93;26.27;;;-3275.90;76.60;;;;;;5116732;28;19914;-90
2022/01/16 06:42:56;;;;;;;135.43;25.23;;;-3275.80;76.40;;;;;;5120414;28;20023;-89
2022/01/16 06:45:22;;;;;;;;;;;-3275.80;76.60;;;;;;5104714;28;20540;-90
2022/01/16 06:47:48;;;;;;;99.00;26.30;;;-3275.80;76.70;;;;;;5113594;28;19920;-89
2022/01/16 06:50:13;;;;;;;;;;;-3275.90;76.50;;;;;;5104868;28;20038;-89
2022/01/16 06:52:39;;;;;;;187.70;30.80;;;-3275.80;76.60;;;;;;5112727;28;19908;-88
2022/01/16 06:55:06;;;;;;;;;;;-3275.90;76.40;;;;;;5116032;28;20040;-89
2022/01/16 06:57:31;;;;;;;116.20;19.77;;;-3275.90;76.60;;;;;;5103322;28;19915;-87
2022/01/16 06:59:57;;;;;;;221.35;33.75;;;-3275.80;76.40;;;;;;5108055;28;20020;-89
2022/01/16 07:02:23;;;;;;;;;;;-3275.80;76.50;;;;;;5114271;28;20016;-90
2022/01/16 07:04:48;;;;;;;132.43;27.30;;;-3275.80;76.70;;;;;;5107564;28;20024;-89
2022/01/16 07:07:14;;;;;;;;;;;-3275.90;76.40;;;;;;5109432;28;20051;-89
2022/01/16 07:09:40;;;;;;;147.47;27.40;;;-3275.90;76.60;;;;;;5104580;28;20308;-89
2022/01/16 07:12:06;;;;;;;;;;;-3275.90;76.40;;;;;;5105836;28;20047;-89
2022/01/16 07:14:32;;;;;;;123.93;28.27;;;-3275.90;76.50;;;;;;5112387;28;19981;-89
2022/01/16 07:16:57;;;;;;;;;;;-3275.90;76.40;;;;;;5108339;28;20044;-89
2022/01/16 07:19:23;;;;;;;121.20;26.90;;;-3275.90;76.50;;;;;;5107044;28;19908;-88
2022/01/16 07:21:49;;;;;;;;;;;-3276.00;76.40;;;;;;5110712;28;20107;-89
2022/01/16 07:24:16;;;;;;;136.50;26.83;;;-3276.00;76.50;;;;;;5113635;28;19913;-89
2022/01/16 07:26:45;;;;;;;170.17;30.83;;;-3276.00;76.30;;;;;;5117767;28;20027;-90
2022/01/16 07:29:11;;;;;;;126.10;28.83;;;-3275.90;76.50;;;;;;5113298;28;20039;-91
2022/01/16 07:31:39;;;;;;;;;;;-3275.90;76.60;;;;;;5117002;28;20020;-90
2022/01/16 07:34:06;;;;;;;88.63;24.57;;;-3276.00;76.80;;;;;;5115164;28;19915;-89
2022/01/16 07:36:32;;;;;;;102.23;27.43;;;-3276.10;76.50;;;;;;5113380;28;20027;-90
2022/01/16 07:38:58;;;;;;;110.37;26.97;;;-3276.10;76.50;;;;;;5116400;28;20027;-90
2022/01/16 07:41:33;;;;;;;;;;;-3276.00;76.60;;;;;;5107423;28;20435;-91
2022/01/16 07:43:59;;;;;;;77.30;23.23;;;-3276.10;76.80;;;;;;5118887;28;20371;-89
2022/01/16 07:46:24;;;;;;;;;;;-3276.20;76.40;;;;;;5105699;28;20027;-89
2022/01/16 07:48:50;;;;;;;83.83;22.90;;;-3276.20;76.50;;;;;;5107959;28;19912;-90
2022/01/16 07:51:16;;;;;;;;;;;-3276.20;76.30;;;;;;5116701;28;20031;-88
2022/01/16 07:53:41;;;;;;;68.60;22.40;;;-3276.20;76.40;;;;;;5108862;28;19915;-90
2022/01/16 07:56:06;;;;;;;;;;;-3276.20;76.30;;;;;;5115362;28;20064;-89
2022/01/16 07:58:32;;;;;;;76.63;26.97;;;-3276.20;76.50;;;;;;5115040;28;20435;-88
2022/01/16 08:00:57;;;;;;;;;;;-3276.20;76.40;;;;;;5109608;28;20050;-89
2022/01/16 08:03:23;;;;;;;81.33;24.20;;;-3276.20;76.60;;;;;;5107306;28;19912;-90
2022/01/16 08:05:49;;;;;;;;;;;-3276.20;76.40;;;;;;5110990;28;20039;-89
2022/01/16 08:08:14;;;;;;;80.40;26.83;;;-3276.20;76.60;;;;;;5109149;28;20384;-88
2022/01/16 08:10:40;;;;;;;91.20;27.85;;;-3276.20;76.40;;;;;;5112896;28;20035;-89
2022/01/16 08:13:06;;;;;;;83.13;26.58;;;-3276.10;76.60;;;;;;5105991;28;20376;-88
2022/01/16 08:15:32;;;;;;;;;;;-3276.10;76.80;;;;;;5110791;28;20023;-89
2022/01/16 08:17:58;;;;;;;77.07;24.13;;;-3276.10;77.00;;;;;;5100883;28;20379;-88
2022/01/16 08:20:23;;;;;;;85.60;28.00;;;-3276.10;76.70;;;;;;5111364;28;20020;-88
2022/01/16 08:22:49;;;;;;;;;;;-3276.00;76.90;;;;;;5105225;28;20006;-88
2022/01/16 08:25:15;;;;;;;86.77;27.97;;;-3276.00;77.00;;;;;;5102658;28;19915;-89
2022/01/16 08:27:41;;;;;;;83.03;28.77;;;-3276.10;76.80;;;;;;5107810;28;20115;-89
2022/01/16 08:30:08;;;;;;;74.53;28.07;;;-3276.10;76.90;;;;;;5108356;28;20491;-89
2022/01/16 08:32:34;;;;;;;86.20;30.77;;;-3276.10;77.00;;;;;;5110309;28;20020;-89
2022/01/16 08:35:00;;;;;;;;;;;-3276.10;77.00;;;;;;5103759;28;20026;-89
2022/01/16 08:37:26;;;;;;;90.13;30.33;;;-3276.20;77.10;;;;;;5108789;28;19912;-88
2022/01/16 08:39:51;;;;;;;;;;;-3276.20;76.80;;;;;;5105978;28;20074;-87
2022/01/16 08:42:17;;;;;;;86.03;32.83;;;-3276.20;77.00;;;;;;5105007;28;19958;-85
2022/01/16 08:44:43;;;;;;;;;;;-3276.30;76.70;;;;;;5103783;28;20027;-86
2022/01/16 08:47:09;;;;;;;83.83;30.77;;;-3276.30;76.90;;;;;;5103946;28;19919;-87
2022/01/16 08:49:35;;;;;;;92.30;31.73;;;-3276.40;76.70;;;;;;5100352;28;20443;-86
2022/01/16 08:52:01;;;;;;;;;;;-3276.40;76.90;;;;;;5107392;28;20020;-87
2022/01/16 08:54:27;;;;;;;86.57;29.10;;;-3276.40;77.00;;;;;;5107273;28;19908;-86
2022/01/16 08:56:52;;;;;;;85.85;30.05;;;-3276.50;76.80;;;;;;5107368;28;20124;-87
2022/01/16 08:59:18;;;;;;;72.07;27.83;;;-3276.50;76.80;;;;;;5107292;28;20135;-87
2022/01/16 09:01:43;;;;;;;;;;;-3276.50;76.90;;;;;;5106651;28;20134;-87
2022/01/16 09:04:09;;;;;;;79.50;26.87;;;-3276.60;77.00;;;;;;5106434;28;20246;-88
2022/01/16 09:06:34;;;;;;;;;;;-3276.60;76.80;;;;;;5110608;28;20024;-88
2022/01/16 09:09:00;;;;;;;68.13;23.87;;;-3276.70;76.90;;;;;;5108041;28;19955;-87
2022/01/16 09:11:25;;;;;;;72.30;23.92;;;-3276.70;76.70;;;;;;5106746;28;20024;-88
2022/01/16 09:13:52;;;;;;;;;;;-3276.70;76.80;;;;;;5105061;28;20423;-88
2022/01/16 09:16:18;;;;;;;70.87;23.87;;;0.00;77.00;;;;;;5106094;28;19915;-87
2022/01/16 09:18:45;;;;;;;77.97;26.90;;;0.00;76.70;;;;;;5104662;28;20052;-87
2022/01/16 09:21:10;;;;;;;83.43;28.50;;;0.00;76.90;;;;;;5110959;28;20015;-87
2022/01/16 09:23:37;;;;;;;;;;;0.00;77.00;;;;;;5111178;28;20073;-79
2022/01/16 09:26:02;;;;;;;55.03;22.10;;;0.10;77.10;;;;;;5098518;28;19908;-80
2022/01/16 09:28:28;;;;;;;;;;;0.20;76.80;;;;;;5108647;28;20035;-81
2022/01/16 09:30:53;;;;;;;66.87;22.33;;;0.30;76.90;;;;;;5102095;28;20364;-81
2022/01/16 09:33:19;;;;;;;;;;;0.30;76.60;;;;;;5116931;28;20016;-81
2022/01/16 09:35:45;;;;;;;66.87;22.83;;;0.40;76.80;;;;;;5127998;28;19929;-81
2022/01/16 09:38:11;;;;;;;70.97;25.20;;;0.50;76.60;;;;;;5120719;28;20026;-82
2022/01/16 09:40:36;;;;;;;;;;;0.60;76.70;;;;;;5118803;28;20026;-83
2022/01/16 09:43:03;;;;;;;54.30;20.53;;;0.70;76.80;;;;;;5131518;28;19908;-84
2022/01/16 09:45:30;;;;;;;66.37;23.30;;;0.80;76.50;;;;;;5123345;28;20054;-83
2022/01/16 09:47:55;;;;;;;62.63;23.97;;;0.90;76.50;;;;;;5118309;28;20036;-83
2022/01/16 09:50:23;;;;;;;;;;;0.90;76.50;;;;;;5116580;28;20084;-83
2022/01/16 09:52:50;;;;;;;65.80;23.70;;;1.10;76.70;;;;;;5117130;28;19907;-83
2022/01/16 09:55:17;;;;;;;70.40;25.80;;;1.20;76.30;;;;;;5113464;28;20035;-83
2022/01/16 09:57:42;;;;;;;62.00;24.43;;;1.30;76.40;;;;;;5120414;28;20045;-83
2022/01/16 10:00:10;;;;;;;;;;;1.30;76.30;;;;;;5120098;28;20099;-82
2022/01/16 10:02:36;;;;;;;74.20;25.80;;;1.40;76.40;;;;;;5120141;28;20004;-82
2022/01/16 10:05:01;;;;;;;;;;;1.50;76.10;;;;;;5101845;28;20052;-81
2022/01/16 10:07:27;;;;;;;62.67;23.30;;;1.50;76.20;;;;;;5096540;28;19919;-83
2022/01/16 10:10:09;;;;;;;72.18;26.10;;;1.60;75.90;;;;;;5111308;28;20051;-83
2022/01/16 10:12:35;;;;;;;45.93;16.87;;;1.80;76.10;;;;;;5117209;28;20341;-83
2022/01/16 10:15:20;;;;;;;49.63;18.63;;;2.30;75.80;;;;;;5103137;28;20430;-83
2022/01/16 10:17:55;;;;;;;49.27;18.37;;;2.90;74.30;;;;;;5096497;28;20139;-83
2022/01/16 10:20:22;;;;;;;66.03;24.83;;;3.80;73.20;;;;;;5114762;28;20020;-82
2022/01/16 10:22:48;;;;;;;130.03;42.50;;;4.60;71.90;;;;;;5100776;28;20016;-83
2022/01/16 10:25:17;;;;;;;49.87;22.43;;;5.60;70.50;;;;;;5103740;28;20168;-84
2022/01/16 10:27:44;;;;;;;54.50;24.03;;;6.40;69.00;;;;;;5116645;28;20392;-83
2022/01/16 10:30:14;;;;;;;63.93;27.83;;;7.10;67.80;;;;;;5102515;28;20067;-84
2022/01/16 10:32:42;;;;;;;47.83;21.73;;;7.90;66.40;;;;;;5097837;28;20097;-83
2022/01/16 10:35:14;;;;;;;46.95;20.85;;;8.70;65.10;;;;;;5096858;28;20024;-83
2022/01/16 10:37:52;;;;;;;48.35;21.17;;;9.50;63.00;;;;;;5096065;28;20028;-84
2022/01/16 10:40:39;;;;;;;45.17;21.45;;;10.30;60.30;;;;;;5102867;28;20011;-83
2022/01/16 10:43:15;;;;;;;49.35;21.63;;;11.10;58.40;;;;;;5096546;28;20111;-84
2022/01/16 10:45:43;;;;;;;42.15;20.55;;;11.80;58.10;;;;;;5095513;28;20385;-85
2022/01/16 10:48:10;;;;;;;48.20;22.48;;;12.20;56.70;;;;;;5097762;28;20016;-84
2022/01/16 10:50:38;;;;;;;43.03;21.52;;;12.50;54.20;;;;;;5104455;28;20022;-83
2022/01/16 10:53:10;;;;;;;45.78;22.52;;;13.10;52.50;;;;;;5116608;28;20024;-84
2022/01/16 10:55:51;;;;;;;43.28;20.80;;;13.30;51.30;;;;;;5118186;28;20369;-84
2022/01/16 10:58:36;;;;;;;41.00;22.45;;;13.30;50.50;;;;;;5117534;28;20024;-84
2022/01/16 11:01:10;;;;;;;48.33;23.05;;;13.10;49.30;;;;;;5120040;28;20063;-88
2022/01/16 11:03:39;;;;;;;49.95;26.00;;;12.90;49.00;;;;;;5108252;28;20012;-80
2022/01/16 11:06:05;;;;;;;44.20;21.73;;;12.70;49.30;;;;;;5106093;28;20084;-82
2022/01/16 11:08:32;;;;;;;43.03;22.27;;;12.60;49.40;;;;;;5110063;28;20040;-83
2022/01/16 11:10:59;;;;;;;43.92;23.52;;;12.40;49.10;;;;;;5107042;28;20016;-84
2022/01/16 11:13:30;;;;;;;47.88;22.05;;;12.30;48.60;;;;;;5115778;28;20019;-83
2022/01/16 11:16:04;;;;;;;46.13;22.20;;;12.00;48.40;;;;;;5099260;28;20035;-82
2022/01/16 11:18:31;;;;;;;48.17;25.20;;;11.70;48.20;;;;;;5095389;28;20051;-83
2022/01/16 11:26:02;;;;;;;51.97;24.58;;;11.10;48.60;;;;;;5113650;28;20062;-83
2022/01/16 11:28:29;;;;;;;45.47;23.40;;;10.80;48.30;;;;;;5100831;28;20032;-83
2022/01/16 11:31:02;;;;;;;46.85;21.55;;;10.50;48.80;;;;;;5111452;28;20489;-82
2022/01/16 11:33:29;;;;;;;47.33;22.33;;;10.20;48.50;;;;;;5101404;28;20107;-83
2022/01/16 11:35:59;;;;;;;46.65;22.30;;;10.20;48.40;;;;;;5101211;28;20032;-82
2022/01/16 11:38:39;;;;;;;45.35;21.85;;;10.40;47.70;;;;;;5106818;28;20094;-84
2022/01/16 11:41:15;;;;;;;51.80;22.80;;;10.90;46.80;;;;;;5104914;28;20040;-79
2022/01/16 11:43:46;;;;;;;46.58;22.08;;;11.10;46.30;;;;;;5104700;28;20027;-81
2022/01/16 11:46:14;;;;;;;49.33;22.60;;;11.00;46.40;;;;;;5102695;28;20368;-83
2022/01/16 11:49:00;;;;;;;44.58;20.83;;;10.70;46.90;;;;;;5102797;28;20028;-83
2022/01/16 11:51:35;;;;;;;49.25;22.02;;;10.40;46.80;;;;;;5112030;28;20023;-82
2022/01/16 11:54:11;;;;;;;47.35;23.38;;;10.20;46.70;;;;;;5102252;28;20028;-81
2022/01/16 11:56:40;;;;;;;43.70;19.75;;;10.10;46.30;;;;;;5095641;28;20031;-82
2022/01/16 11:59:15;;;;;;;43.13;22.13;;;9.90;46.00;;;;;;5107876;28;20031;-82
2022/01/16 12:01:52;;;;;;;42.13;20.48;;;9.60;46.40;;;;;;5101291;28;20103;-82
2022/01/16 12:04:30;;;;;;;41.40;20.08;;;9.30;46.30;;;;;;5097119;28;20028;-81
2022/01/16 12:07:04;;;;;;;44.63;18.70;;;9.10;46.50;;;;;;5114861;28;20101;-82
2022/01/16 12:09:50;;;;;;;39.40;17.05;;;9.00;46.40;;;;;;5111233;28;20020;-82
2022/01/16 12:12:17;;;;;;;39.50;19.23;;;8.90;46.10;;;;;;5114948;28;20050;-80
2022/01/16 12:14:50;;;;;;;45.33;21.52;;;8.80;46.40;;;;;;5105234;28;20077;-81
2022/01/16 12:17:30;;;;;;;44.35;20.58;;;9.00;46.20;;;;;;5110341;28;20051;-81
2022/01/16 12:20:14;;;;;;;47.78;20.30;;;9.30;45.80;;;;;;5102822;28;20039;-84
2022/01/16 12:23:00;;;;;;;39.42;17.77;;;9.50;45.30;;;;;;5110751;28;20065;-84
2022/01/16 12:25:37;;;;;;;44.22;20.00;;;9.60;45.00;;;;;;5103971;28;20053;-84
2022/01/16 12:28:06;;;;;;;46.35;20.30;;;9.60;44.80;;;;;;5102326;28;20036;-84
2022/01/16 12:30:52;;;;;;;43.33;18.40;;;9.60;44.80;;;;;;5102155;28;20516;-84
2022/01/16 12:33:24;;;;;;;37.47;17.48;;;9.80;44.20;;;;;;5100281;28;20381;-84
2022/01/16 12:35:54;;;;;;;47.55;20.38;;;9.90;44.00;;;;;;5100543;28;20023;-84
2022/01/16 12:38:28;;;;;;;43.83;21.05;;;10.00;43.30;;;;;;5103101;28;20525;-84
2022/01/16 12:41:09;;;;;;;39.72;18.77;;;10.00;43.30;;;;;;5103059;28;20078;-84
2022/01/16 12:43:46;;;;;;;42.42;19.65;;;9.90;43.20;;;;;;5107165;28;20381;-84
2022/01/16 12:46:24;;;;;;;50.30;22.10;;;9.80;43.20;;;;;;5106942;28;20031;-84
2022/01/16 12:48:53;;;;;;;63.35;27.30;;;9.80;43.40;;;;;;5101087;28;20032;-83
2022/01/16 12:51:24;;;;;;;50.40;23.73;;;9.90;43.90;;;;;;5112841;28;20019;-84
2022/01/16 12:53:52;;;;;;;55.30;24.70;;;9.80;43.70;;;;;;5114163;28;20013;-85
2022/01/16 12:56:33;;;;;;;50.20;22.00;;;9.80;43.80;;;;;;5119351;28;20045;-82
2022/01/16 12:59:11;;;;;;;47.70;23.08;;;9.70;43.70;;;;;;5113400;28;20043;-80
2022/01/16 13:01:44;;;;;;;48.13;21.05;;;9.30;43.90;;;;;;5124293;28;20035;-81
2022/01/16 13:04:28;;;;;;;42.10;19.70;;;9.20;43.90;;;;;;5131050;28;19996;-82
2022/01/16 13:06:56;;;;;;;48.53;23.17;;;9.00;43.60;;;;;;5109054;28;20023;-82
2022/01/16 13:09:23;;;;;;;53.60;23.60;;;8.70;43.80;;;;;;5104549;28;20142;-81
2022/01/16 13:11:51;;;;;;;46.47;21.20;;;8.50;43.90;;;;;;5116049;28;20027;-81
2022/01/16 13:14:25;;;;;;;63.00;28.30;;;8.40;43.90;;;;;;5103620;28;20034;-82
2022/01/16 13:16:56;;;;;;;59.38;26.70;;;8.20;44.10;;;;;;5113635;28;20464;-82